createdAt,value
2023-05-13T00:01:10.842Z,8.95
2023-05-13T00:03:38.223Z,8.93
2023-05-13T00:06:05.521Z,8.93
2023-05-13T00:08:32.339Z,8.89
2023-05-13T00:10:59.214Z,8.78
2023-05-13T00:13:26.842Z,8.71
2023-05-13T00:15:53.884Z,8.68
2023-05-13T00:18:20.845Z,8.64
2023-05-13T00:20:47.860Z,8.60
2023-05-13T00:23:14.737Z,8.56
2023-05-13T00:25:42.268Z,8.52
2023-05-13T00:28:09.145Z,8.43
2023-05-13T00:30:36.128Z,8.38
2023-05-13T00:33:03.205Z,8.35
2023-05-13T00:35:30.130Z,8.34
2023-05-13T00:37:57.005Z,8.36
2023-05-13T00:40:24.490Z,8.38
2023-05-13T00:42:51.600Z,8.36
2023-05-13T00:45:18.497Z,8.29
2023-05-13T00:47:45.521Z,8.24
2023-05-13T00:50:12.993Z,8.22
2023-05-13T00:52:40.384Z,8.22
2023-05-13T00:55:09.001Z,8.24
2023-05-13T00:57:36.808Z,8.23
2023-05-13T01:00:05.928Z,8.16
2023-05-13T01:02:37.567Z,8.08
2023-05-13T01:05:20.064Z,8.02
2023-05-13T01:07:56.204Z,8.00
2023-05-13T01:10:45.107Z,8.01
2023-05-13T01:13:14.391Z,8.00
2023-05-13T01:15:57.620Z,7.94
2023-05-13T01:18:27.864Z,7.85
2023-05-13T01:20:54.708Z,7.80
2023-05-13T01:23:21.946Z,7.78
2023-05-13T01:25:50.622Z,7.78
2023-05-13T01:28:17.425Z,7.77
2023-05-13T01:30:47.656Z,7.74
2023-05-13T01:33:15.544Z,7.70
2023-05-13T01:35:43.995Z,7.68
2023-05-13T01:38:12.306Z,7.64
2023-05-13T01:40:39.467Z,7.61
2023-05-13T01:43:06.831Z,7.59
2023-05-13T01:45:35.442Z,7.58
2023-05-13T01:48:02.494Z,7.56
2023-05-13T01:50:37.762Z,7.48
2023-05-13T01:53:05.097Z,7.38
2023-05-13T01:55:32.079Z,7.31
2023-05-13T01:58:00.460Z,7.28
2023-05-13T02:00:27.529Z,7.27
2023-05-13T02:02:54.374Z,7.27
2023-05-13T02:05:21.646Z,7.28
2023-05-13T02:07:48.762Z,7.27
2023-05-13T02:10:15.611Z,7.22
2023-05-13T02:12:42.492Z,7.18
2023-05-13T02:15:10.064Z,7.14
2023-05-13T02:17:36.919Z,7.12
2023-05-13T02:20:04.294Z,7.10
2023-05-13T02:22:31.264Z,7.09
2023-05-13T02:24:58.920Z,7.07
2023-05-13T02:27:26.182Z,7.04
2023-05-13T02:29:53.402Z,6.99
2023-05-13T02:32:20.211Z,6.94
2023-05-13T02:34:47.296Z,6.90
2023-05-13T02:37:17.994Z,6.87
2023-05-13T02:39:49.214Z,6.83
2023-05-13T02:42:16.333Z,6.77
2023-05-13T02:44:43.220Z,6.71
2023-05-13T02:47:11.829Z,6.66
2023-05-13T02:49:38.862Z,6.64
2023-05-13T02:52:06.196Z,6.64
2023-05-13T02:54:34.666Z,6.65
2023-05-13T02:57:01.717Z,6.66
2023-05-13T02:59:28.879Z,6.64
2023-05-13T03:01:55.876Z,6.61
2023-05-13T03:04:22.778Z,6.53
2023-05-13T03:06:50.784Z,6.48
2023-05-13T03:09:17.821Z,6.46
2023-05-13T03:11:44.757Z,6.45
2023-05-13T03:14:11.676Z,6.46
2023-05-13T03:16:38.614Z,6.47
2023-05-13T03:19:05.636Z,6.48
2023-05-13T03:21:32.618Z,6.48
2023-05-13T03:23:59.813Z,6.45
2023-05-13T03:26:27.056Z,6.40
2023-05-13T03:28:54.651Z,6.37
2023-05-13T03:31:22.051Z,6.37
2023-05-13T03:33:49.006Z,6.38
2023-05-13T03:36:15.831Z,6.38
2023-05-13T03:38:42.922Z,6.38
2023-05-13T03:41:10.043Z,6.39
2023-05-13T03:43:37.136Z,6.41
2023-05-13T03:46:07.081Z,6.46
2023-05-13T03:48:33.967Z,6.50
2023-05-13T03:51:01.662Z,6.47
2023-05-13T03:53:29.555Z,6.45
2023-05-13T03:55:56.471Z,6.43
2023-05-13T03:58:23.347Z,6.41
2023-05-13T04:00:50.358Z,6.40
2023-05-13T04:03:17.763Z,6.39
2023-05-13T04:05:48.066Z,6.39
2023-05-13T04:08:15.337Z,6.40
2023-05-13T04:10:43.306Z,6.42
2023-05-13T04:13:10.101Z,6.48
2023-05-13T04:15:36.946Z,6.54
2023-05-13T04:18:06.203Z,6.54
2023-05-13T04:20:34.506Z,6.55
2023-05-13T04:23:01.959Z,6.58
2023-05-13T04:25:29.826Z,6.60
2023-05-13T04:27:56.628Z,6.63
2023-05-13T04:30:31.637Z,6.65
2023-05-13T04:32:58.536Z,6.68
2023-05-13T04:35:25.731Z,6.72
2023-05-13T04:37:56.567Z,6.85
2023-05-13T04:40:23.663Z,6.98
2023-05-13T04:42:55.131Z,7.04
2023-05-13T04:45:26.963Z,7.10
2023-05-13T04:47:55.528Z,7.16
2023-05-13T04:50:23.810Z,7.23
2023-05-13T04:52:51.298Z,7.31
2023-05-13T04:55:18.208Z,7.48
2023-05-13T04:57:45.469Z,7.64
2023-05-13T05:00:13.374Z,7.74
2023-05-13T05:02:40.984Z,7.83
2023-05-13T05:05:08.228Z,7.94
2023-05-13T05:07:40.349Z,8.05
2023-05-13T05:10:08.552Z,8.18
2023-05-13T05:12:38.357Z,8.38
2023-05-13T05:15:06.247Z,8.57
2023-05-13T05:17:34.090Z,8.69
2023-05-13T05:20:02.973Z,8.79
2023-05-13T05:22:30.218Z,8.91
2023-05-13T05:24:57.068Z,9.01
2023-05-13T05:27:25.344Z,9.11
2023-05-13T05:29:52.230Z,9.21
2023-05-13T05:32:19.598Z,9.32
2023-05-13T05:34:46.597Z,9.41
2023-05-13T05:37:14.029Z,9.49
2023-05-13T05:39:41.769Z,9.61
2023-05-13T05:42:08.787Z,9.72
2023-05-13T05:44:36.411Z,9.86
2023-05-13T05:47:03.502Z,9.97
2023-05-13T05:51:34.372Z,10.19
2023-05-13T05:54:03.110Z,10.31
2023-05-13T05:56:30.698Z,10.46
2023-05-13T05:58:57.574Z,10.61
2023-05-13T06:01:26.143Z,10.74
2023-05-13T06:03:55.342Z,10.88
2023-05-13T06:06:23.224Z,11.01
2023-05-13T06:08:50.413Z,11.12
2023-05-13T06:11:17.463Z,11.24
2023-05-13T06:13:44.337Z,11.37
2023-05-13T06:16:11.232Z,11.48
2023-05-13T06:18:38.261Z,11.60
2023-05-13T06:21:05.274Z,11.69
2023-05-13T06:23:32.124Z,11.77
2023-05-13T06:26:46.182Z,11.91
2023-05-13T06:29:14.376Z,12.00
2023-05-13T06:31:41.307Z,12.10
2023-05-13T06:34:08.535Z,12.19
2023-05-13T06:36:35.492Z,12.28
2023-05-13T06:39:04.151Z,12.36
2023-05-13T06:41:32.397Z,12.45
2023-05-13T06:44:06.828Z,12.58
2023-05-13T06:46:38.500Z,12.70
2023-05-13T06:49:05.380Z,12.83
2023-05-13T06:52:02.903Z,12.99
2023-05-13T06:54:30.417Z,13.10
2023-05-13T06:56:57.266Z,13.21
2023-05-13T06:59:24.161Z,13.31
2023-05-13T07:01:51.014Z,13.42
2023-05-13T07:04:17.911Z,13.52
2023-05-13T07:06:45.008Z,13.63
2023-05-13T07:09:11.926Z,13.71
2023-05-13T07:11:39.214Z,13.81
2023-05-13T07:14:06.283Z,13.90
2023-05-13T07:16:33.182Z,14.00
2023-05-13T07:19:00.011Z,14.08
2023-05-13T07:21:26.855Z,14.16
2023-05-13T07:23:53.677Z,14.25
2023-05-13T07:26:21.768Z,14.34
2023-05-13T07:28:48.725Z,14.43
2023-05-13T07:31:15.581Z,14.51
2023-05-13T07:33:42.448Z,14.60
2023-05-13T07:36:09.359Z,14.69
2023-05-13T07:38:36.190Z,14.78
2023-05-13T07:41:02.980Z,14.85
2023-05-13T07:43:30.122Z,14.93
2023-05-13T07:45:57.013Z,15.02
2023-05-13T07:48:25.380Z,15.11
2023-05-13T07:50:52.685Z,15.21
2023-05-13T07:53:20.010Z,15.29
2023-05-13T07:55:46.975Z,15.38
2023-05-13T07:58:13.820Z,15.45
2023-05-13T08:00:40.865Z,15.53
2023-05-13T08:03:07.836Z,15.61
2023-05-13T08:05:34.896Z,15.70
2023-05-13T08:08:02.963Z,15.78
2023-05-13T08:10:30.554Z,15.84
2023-05-13T08:14:50.176Z,16.00
2023-05-13T08:24:12.505Z,16.24
2023-05-13T08:29:20.582Z,16.43
2023-05-13T08:31:47.510Z,16.48
2023-05-13T08:34:14.489Z,16.54
2023-05-13T08:36:41.552Z,16.57
2023-05-13T08:39:08.704Z,16.62
